Time;durP1;ratioP1;P1;durP2;ratioP2;P2;SDS_P1;SDS_P2;PMS_P1;PMS_P2;Temp;Humidity;BMP_temperature;BMP_pressure;BME280_temperature;BME280_humidity;BME280_pressure;Samples;Min_cycle;Max_cycle;Signal;HPM_P1;HPM_P2
2022/05/21 00:02:11;;;;;;;4.93;3.70;;;12.30;99.90;;;;;;4900166;29;20275;-73
2022/05/21 00:04:56;;;;;;;5.00;3.90;;;12.40;99.90;;;;;;4917832;29;20576;-73
2022/05/21 00:07:41;;;;;;;5.13;3.60;;;12.40;99.90;;;;;;4890276;29;20276;-73
2022/05/21 00:10:26;;;;;;;5.70;3.80;;;12.40;99.90;;;;;;4891133;29;20198;-73
2022/05/21 00:13:12;;;;;;;5.03;3.70;;;12.40;99.90;;;;;;4894776;29;20684;-73
2022/05/21 00:15:56;;;;;;;5.53;3.70;;;12.30;99.90;;;;;;4902327;29;20198;-73
2022/05/21 00:18:40;;;;;;;6.07;4.57;;;12.30;99.90;;;;;;4902196;29;20208;-72
2022/05/21 00:21:24;;;;;;;5.20;4.00;;;12.30;99.90;;;;;;4915577;29;20208;-72
2022/05/21 00:24:08;;;;;;;4.57;4.10;;;12.30;99.90;;;;;;4916714;29;20275;-72
2022/05/21 00:26:53;;;;;;;5.03;4.20;;;12.30;99.90;;;;;;4902610;29;20171;-73
2022/05/21 00:29:37;;;;;;;8.67;4.80;;;12.30;99.90;;;;;;4902706;29;20348;-73
2022/05/21 00:32:21;;;;;;;6.73;4.17;;;12.40;99.90;;;;;;4916655;29;20704;-72
2022/05/21 00:35:07;;;;;;;5.23;4.43;;;12.40;99.90;;;;;;4893860;29;20208;-73
2022/05/21 00:37:51;;;;;;;7.13;4.40;;;12.40;99.90;;;;;;4911707;29;20216;-73
2022/05/21 00:40:36;;;;;;;5.10;4.60;;;12.40;99.90;;;;;;4906414;29;20699;-73
2022/05/21 00:43:41;;;;;;;5.23;4.37;;;12.30;99.90;;;;;;4890639;29;20712;-72
2022/05/21 00:46:27;;;;;;;10.97;3.73;;;12.30;99.90;;;;;;4897213;29;20259;-73
2022/05/21 00:49:16;;;;;;;4.00;3.40;;;12.30;99.90;;;;;;4883181;29;20252;-73
2022/05/21 00:52:07;;;;;;;5.43;4.30;;;12.30;99.90;;;;;;4886842;29;20246;-72
2022/05/21 00:54:59;;;;;;;4.50;3.40;;;12.20;99.90;;;;;;4912110;29;20281;-73
2022/05/21 01:01:04;;;;;;;4.90;4.40;;;12.20;99.90;;;;;;4897215;29;20243;-72
2022/05/21 01:03:48;;;;;;;5.57;4.07;;;12.20;99.90;;;;;;4883025;29;20229;-73
2022/05/21 01:06:33;;;;;;;5.93;4.40;;;12.10;99.90;;;;;;4882874;29;20589;-72
2022/05/21 01:09:17;;;;;;;11.90;4.60;;;12.10;99.90;;;;;;4883212;29;20288;-73
2022/05/21 01:12:04;;;;;;;7.13;4.60;;;12.00;99.90;;;;;;4898282;29;20198;-72
2022/05/21 01:14:51;;;;;;;6.50;5.27;;;12.10;99.90;;;;;;4920536;29;20262;-73
2022/05/21 01:17:35;;;;;;;7.03;5.47;;;12.10;99.90;;;;;;4919924;29;20234;-73
2022/05/21 01:20:22;;;;;;;7.80;6.27;;;12.00;99.90;;;;;;4934275;29;20199;-72
2022/05/21 01:23:07;;;;;;;9.27;6.27;;;12.00;99.90;;;;;;4910084;29;20295;-72
2022/05/21 01:25:53;;;;;;;9.67;6.97;;;12.00;99.90;;;;;;4906832;29;20195;-73
2022/05/21 01:28:38;;;;;;;8.93;7.20;;;12.00;99.90;;;;;;4885983;29;20267;-73
2022/05/21 01:31:22;;;;;;;9.10;7.10;;;12.00;99.90;;;;;;4900113;29;20177;-73
2022/05/21 01:34:06;;;;;;;10.97;8.40;;;12.00;99.90;;;;;;4885945;29;20256;-73
2022/05/21 01:36:50;;;;;;;11.33;8.10;;;11.90;99.90;;;;;;4900085;29;20176;-73
2022/05/21 01:39:35;;;;;;;11.03;9.53;;;11.90;99.90;;;;;;4886710;29;20260;-72
2022/05/21 01:42:18;;;;;;;12.50;8.83;;;11.90;99.90;;;;;;4920202;29;20211;-72
2022/05/21 01:45:03;;;;;;;12.93;9.23;;;11.90;99.90;;;;;;4904562;29;20199;-73
2022/05/21 01:47:48;;;;;;;11.97;8.97;;;11.90;99.90;;;;;;4918768;29;20211;-72
2022/05/21 01:50:33;;;;;;;11.00;9.13;;;11.90;99.90;;;;;;4895054;29;20196;-73
2022/05/21 01:53:17;;;;;;;9.43;8.43;;;11.90;99.90;;;;;;4903709;29;20243;-73
2022/05/21 01:56:02;;;;;;;12.33;8.50;;;11.90;99.90;;;;;;4904416;29;20240;-72
2022/05/21 01:58:46;;;;;;;11.87;8.43;;;11.90;99.90;;;;;;4917195;29;20231;-72
2022/05/21 02:01:31;;;;;;;11.40;8.87;;;11.90;99.90;;;;;;4923070;29;20263;-73
2022/05/21 02:04:16;;;;;;;10.50;8.27;;;11.90;99.90;;;;;;4923401;29;20178;-73
2022/05/21 02:07:00;;;;;;;11.23;8.40;;;11.90;99.90;;;;;;4923130;29;20267;-72
2022/05/21 02:09:44;;;;;;;9.37;8.27;;;11.90;99.90;;;;;;4901143;29;20211;-73
2022/05/21 02:12:28;;;;;;;14.53;9.03;;;11.90;99.90;;;;;;4907655;29;20184;-73
2022/05/21 02:15:12;;;;;;;14.13;9.00;;;11.80;99.90;;;;;;4885063;29;20256;-72
2022/05/21 02:17:56;;;;;;;12.10;9.67;;;11.80;99.90;;;;;;4885327;29;20723;-73
2022/05/21 02:20:41;;;;;;;11.67;9.53;;;11.80;99.90;;;;;;4896131;29;20239;-73
2022/05/21 02:23:26;;;;;;;13.17;9.57;;;11.80;99.90;;;;;;4896216;29;20244;-72
2022/05/21 02:26:10;;;;;;;14.33;9.30;;;11.70;99.90;;;;;;4885094;29;20189;-72
2022/05/21 02:28:55;;;;;;;10.57;9.47;;;11.70;99.90;;;;;;4904441;29;20231;-73
2022/05/21 02:31:39;;;;;;;13.50;9.70;;;11.70;99.90;;;;;;4910152;29;20251;-74
2022/05/21 02:34:23;;;;;;;14.33;10.43;;;11.70;99.90;;;;;;4898629;29;20272;-73
2022/05/21 02:40:11;;;;;;;16.40;10.60;;;11.70;99.90;;;;;;4900300;29;20223;-73
2022/05/21 02:42:55;;;;;;;14.93;11.43;;;11.70;99.90;;;;;;4895777;29;20232;-73
2022/05/21 02:45:40;;;;;;;13.60;11.70;;;11.70;99.90;;;;;;4917751;29;20191;-72
2022/05/21 02:48:27;;;;;;;17.80;11.47;;;11.80;99.90;;;;;;4915793;29;20299;-73
2022/05/21 02:51:11;;;;;;;20.87;11.87;;;11.80;99.90;;;;;;4917869;29;20239;-73
2022/05/21 02:53:56;;;;;;;16.57;12.27;;;11.80;99.90;;;;;;4902416;29;20280;-73
2022/05/21 02:56:46;;;;;;;16.60;12.10;;;11.80;99.90;;;;;;4917767;29;20228;-73
2022/05/21 02:59:30;;;;;;;18.17;11.70;;;11.80;99.90;;;;;;4903207;29;20219;-73
2022/05/21 03:02:14;;;;;;;20.43;12.43;;;11.80;99.90;;;;;;4900429;29;20219;-73
2022/05/21 03:04:58;;;;;;;15.40;12.40;;;11.80;99.90;;;;;;4884647;29;20184;-72
2022/05/21 03:07:45;;;;;;;15.87;12.93;;;11.80;99.90;;;;;;4897888;29;20169;-72
2022/05/21 03:10:30;;;;;;;20.50;14.00;;;11.80;99.90;;;;;;4889161;29;20180;-73
2022/05/21 03:13:14;;;;;;;20.60;13.80;;;11.80;99.90;;;;;;4910010;29;20236;-72
2022/05/21 03:15:58;;;;;;;17.97;14.03;;;11.90;99.90;;;;;;4926068;29;20206;-73
2022/05/21 03:18:42;;;;;;;18.93;14.00;;;11.90;99.90;;;;;;4921979;29;20235;-73
2022/05/21 03:21:26;;;;;;;16.73;12.63;;;11.90;99.90;;;;;;4926675;29;20231;-73
2022/05/21 03:24:10;;;;;;;21.07;14.13;;;11.90;99.90;;;;;;4917279;29;20191;-73
2022/05/21 03:26:55;;;;;;;15.70;13.33;;;11.90;99.90;;;;;;4902963;29;20264;-73
2022/05/21 03:29:39;;;;;;;20.47;14.27;;;11.90;99.90;;;;;;4915871;29;20211;-72
2022/05/21 03:32:23;;;;;;;19.37;14.63;;;12.00;99.90;;;;;;4917311;29;20255;-73
2022/05/21 03:35:09;;;;;;;21.03;15.67;;;12.00;99.90;;;;;;4902778;29;20467;-73
2022/05/21 03:37:52;;;;;;;20.20;15.73;;;12.00;99.90;;;;;;4915056;29;20263;-72
2022/05/21 03:40:37;;;;;;;20.43;16.07;;;12.00;99.90;;;;;;4893028;29;20196;-72
2022/05/21 03:43:21;;;;;;;20.80;16.73;;;12.00;99.90;;;;;;4908991;29;20187;-73
2022/05/21 03:46:05;;;;;;;22.93;16.87;;;12.00;99.90;;;;;;4921355;29;20226;-73
2022/05/21 03:48:50;;;;;;;23.17;16.53;;;12.00;99.90;;;;;;4917045;29;20211;-72
2022/05/21 03:51:34;;;;;;;19.43;15.77;;;12.00;99.90;;;;;;4916591;29;20197;-72
2022/05/21 03:54:18;;;;;;;24.40;16.70;;;12.00;99.90;;;;;;4895455;29;20260;-73
2022/05/21 03:57:04;;;;;;;22.60;17.73;;;12.10;99.90;;;;;;4902331;29;20598;-73
2022/05/21 03:59:48;;;;;;;21.57;16.13;;;12.10;99.90;;;;;;4916580;29;20289;-72
2022/05/21 04:02:32;;;;;;;21.57;16.70;;;12.10;99.90;;;;;;4902045;29;20219;-73
2022/05/21 04:05:16;;;;;;;19.97;17.40;;;12.20;99.90;;;;;;4902210;29;20224;-72
2022/05/21 04:08:02;;;;;;;22.07;17.53;;;12.20;99.90;;;;;;4902034;29;20176;-73
2022/05/21 04:10:47;;;;;;;23.60;17.23;;;12.20;99.90;;;;;;4901101;29;20663;-74
2022/05/21 04:13:32;;;;;;;25.47;17.50;;;12.20;99.90;;;;;;4922334;29;20238;-73
2022/05/21 04:16:16;;;;;;;22.20;17.07;;;12.20;99.90;;;;;;4901817;29;20179;-73
2022/05/21 04:19:01;;;;;;;23.97;18.83;;;12.20;99.90;;;;;;4901569;29;20211;-72
2022/05/21 04:21:45;;;;;;;23.27;17.83;;;12.20;99.90;;;;;;4896153;29;20228;-73
2022/05/21 04:24:29;;;;;;;25.30;18.27;;;12.20;99.90;;;;;;4890549;29;20250;-74
2022/05/21 04:27:13;;;;;;;22.83;19.50;;;12.30;99.90;;;;;;4901843;29;20179;-73
2022/05/21 04:29:57;;;;;;;24.80;19.63;;;12.30;99.90;;;;;;4902040;29;20222;-73
2022/05/21 04:32:41;;;;;;;25.30;18.90;;;12.30;99.90;;;;;;4901700;29;20229;-73
2022/05/21 04:36:17;;;;;;;26.00;18.90;;;12.30;99.90;;;;;;4901335;29;20251;-73
2022/05/21 04:38:34;;;;;;;25.43;19.33;;;12.30;99.90;;;;;;4915783;29;20226;-72
2022/05/21 04:41:20;;;;;;;25.10;19.20;;;12.40;99.90;;;;;;4912978;29;20275;-74
2022/05/21 04:44:07;;;;;;;24.90;19.37;;;12.40;99.90;;;;;;4934655;29;20207;-72
2022/05/21 04:46:51;;;;;;;25.80;17.97;;;12.40;99.90;;;;;;4920652;29;20703;-72
2022/05/21 04:49:35;;;;;;;24.53;19.87;;;12.50;99.90;;;;;;4934886;29;20263;-73
2022/05/21 04:52:19;;;;;;;24.57;18.73;;;12.50;99.90;;;;;;4883073;29;20709;-72
2022/05/21 04:55:06;;;;;;;23.40;17.23;;;12.60;99.90;;;;;;4897547;29;20208;-72
2022/05/21 04:57:50;;;;;;;24.00;17.93;;;12.60;99.90;;;;;;4890826;29;20357;-73
2022/05/21 05:00:34;;;;;;;24.97;18.83;;;12.60;99.90;;;;;;4922872;29;20222;-72
2022/05/21 05:03:19;;;;;;;23.40;17.17;;;12.60;99.90;;;;;;4938321;29;20271;-73
2022/05/21 05:06:05;;;;;;;25.43;17.07;;;12.70;99.90;;;;;;4902728;29;20614;-73
2022/05/21 05:08:49;;;;;;;24.53;17.33;;;12.70;99.90;;;;;;4923980;29;20325;-73
2022/05/21 05:11:34;;;;;;;19.37;15.70;;;12.70;99.90;;;;;;4894118;29;20184;-73
2022/05/21 05:14:18;;;;;;;23.90;17.10;;;12.80;99.90;;;;;;4919758;29;20558;-73
2022/05/21 05:17:04;;;;;;;23.57;16.83;;;12.80;99.90;;;;;;4904472;29;20223;-73
2022/05/21 05:19:48;;;;;;;24.90;16.80;;;12.80;99.90;;;;;;4904817;29;20275;-73
2022/05/21 05:22:32;;;;;;;19.87;17.07;;;12.80;99.90;;;;;;4905171;29;20256;-73
2022/05/21 05:25:16;;;;;;;23.83;16.50;;;12.80;99.90;;;;;;4904247;29;20200;-74
2022/05/21 05:28:01;;;;;;;20.67;16.27;;;12.80;99.90;;;;;;4904835;29;20168;-73
2022/05/21 05:30:47;;;;;;;24.80;16.63;;;12.90;99.90;;;;;;4889764;29;20199;-72
2022/05/21 05:33:33;;;;;;;25.20;15.90;;;12.90;99.90;;;;;;4899238;29;20177;-73
2022/05/21 05:36:17;;;;;;;21.03;15.67;;;13.00;99.90;;;;;;4899642;29;20228;-73
2022/05/21 05:39:02;;;;;;;22.47;14.77;;;13.00;99.90;;;;;;4885658;29;20261;-73
2022/05/21 05:41:46;;;;;;;20.20;13.80;;;13.10;99.90;;;;;;4911481;29;20251;-73
2022/05/21 05:44:31;;;;;;;21.20;14.83;;;13.20;99.90;;;;;;4885093;29;20199;-74
2022/05/21 05:47:15;;;;;;;25.80;15.17;;;13.10;99.90;;;;;;4922384;29;20210;-74
2022/05/21 05:50:00;;;;;;;20.50;14.30;;;13.20;99.90;;;;;;4937806;29;20211;-73
2022/05/21 05:52:44;;;;;;;22.93;13.93;;;13.20;99.90;;;;;;4938078;29;20229;-73
2022/05/21 05:55:30;;;;;;;23.33;14.03;;;13.20;99.90;;;;;;4914441;29;20269;-73
2022/05/21 06:01:19;;;;;;;17.37;13.03;;;13.30;99.90;;;;;;4940583;29;20243;-73
2022/05/21 06:04:04;;;;;;;16.30;12.10;;;13.40;99.90;;;;;;4938394;29;20179;-73
2022/05/21 06:06:48;;;;;;;19.33;13.53;;;13.50;99.90;;;;;;4937367;29;20176;-73
2022/05/21 06:09:32;;;;;;;23.00;13.10;;;13.50;99.90;;;;;;4922315;29;20211;-73
2022/05/21 06:12:17;;;;;;;17.10;13.13;;;13.60;99.90;;;;;;4912114;29;20194;-73
2022/05/21 06:15:01;;;;;;;18.97;12.27;;;13.60;99.90;;;;;;4922721;29;20193;-73
2022/05/21 06:17:45;;;;;;;16.20;11.53;;;13.60;99.90;;;;;;4900770;29;20223;-73
2022/05/21 06:20:29;;;;;;;15.80;11.27;;;13.70;99.90;;;;;;4899285;29;20187;-72
2022/05/21 06:23:13;;;;;;;21.00;11.43;;;13.70;99.90;;;;;;4898601;29;20229;-73
2022/05/21 06:25:59;;;;;;;17.13;10.20;;;13.70;99.90;;;;;;4900640;29;20204;-73
2022/05/21 06:28:43;;;;;;;11.80;9.87;;;13.80;99.90;;;;;;4922755;29;20246;-73
2022/05/21 06:31:27;;;;;;;14.33;10.33;;;13.80;99.90;;;;;;4922422;29;20195;-72
2022/05/21 06:34:11;;;;;;;15.30;10.43;;;13.80;99.90;;;;;;4922809;29;20187;-73
2022/05/21 06:36:55;;;;;;;18.40;10.40;;;13.80;99.90;;;;;;4922457;29;20703;-73
2022/05/21 06:39:42;;;;;;;14.27;9.40;;;13.90;99.90;;;;;;4936878;29;20702;-73
2022/05/21 06:42:26;;;;;;;15.50;9.60;;;13.90;99.90;;;;;;4892476;29;20595;-72
2022/05/21 06:45:10;;;;;;;16.77;9.83;;;13.90;99.90;;;;;;4898989;29;20244;-73
2022/05/21 06:48:00;;;;;;;16.50;10.07;;;14.00;99.90;;;;;;4884674;29;20204;-73
2022/05/21 06:50:45;;;;;;;14.13;9.80;;;14.00;99.90;;;;;;4890976;29;20276;-73
2022/05/21 06:53:29;;;;;;;15.47;8.77;;;14.00;99.90;;;;;;4908087;29;20258;-73
2022/05/21 06:56:15;;;;;;;13.37;7.63;;;14.10;99.90;;;;;;4925914;29;20331;-73
2022/05/21 06:59:00;;;;;;;14.10;7.83;;;14.20;99.90;;;;;;4903607;29;20215;-73
2022/05/21 07:01:44;;;;;;;16.93;7.33;;;14.20;99.90;;;;;;4917416;29;20691;-73
2022/05/21 07:07:34;;;;;;;15.27;6.20;;;14.30;99.90;;;;;;4936492;29;20199;-73
2022/05/21 07:10:21;;;;;;;11.13;6.20;;;14.30;99.90;;;;;;4913380;29;20208;-72
2022/05/21 07:13:06;;;;;;;12.03;5.33;;;14.40;99.90;;;;;;4892395;29;20192;-73
2022/05/21 07:15:52;;;;;;;9.50;4.60;;;14.50;99.90;;;;;;4884503;29;20180;-73
2022/05/21 07:18:36;;;;;;;10.03;3.70;;;14.60;99.90;;;;;;4911270;29;20231;-73
2022/05/21 07:21:21;;;;;;;9.73;4.30;;;14.70;99.90;;;;;;4898514;29;20202;-73
2022/05/21 07:24:06;;;;;;;10.77;4.27;;;14.80;99.90;;;;;;4894437;29;20207;-73
2022/05/21 07:26:50;;;;;;;8.87;3.87;;;14.90;99.90;;;;;;4898281;29;20199;-73
2022/05/21 07:29:38;;;;;;;10.67;3.23;;;14.80;99.90;;;;;;4883733;29;20227;-73
2022/05/21 07:32:27;;;;;;;6.57;3.00;;;14.90;99.90;;;;;;4903325;29;20190;-73
2022/05/21 07:35:14;;;;;;;9.77;3.50;;;14.90;99.90;;;;;;4920276;29;20194;-73
2022/05/21 07:37:58;;;;;;;9.53;2.90;;;14.90;99.90;;;;;;4935265;29;20246;-73
2022/05/21 07:40:45;;;;;;;8.70;3.67;;;15.00;99.90;;;;;;4909008;29;20255;-73
2022/05/21 07:43:30;;;;;;;7.67;3.73;;;15.10;99.90;;;;;;4910090;29;20227;-73
2022/05/21 07:46:14;;;;;;;9.03;2.90;;;15.10;99.90;;;;;;4901480;29;20222;-72
2022/05/21 07:48:58;;;;;;;9.83;2.83;;;15.20;99.90;;;;;;4935479;29;20254;-73
2022/05/21 07:51:42;;;;;;;7.20;2.97;;;15.30;99.90;;;;;;4921070;29;20175;-73
2022/05/21 07:54:27;;;;;;;10.87;3.10;;;15.40;99.90;;;;;;4913233;29;20239;-73
2022/05/21 07:57:11;;;;;;;9.87;3.00;;;15.40;99.90;;;;;;4885604;29;20199;-73
2022/05/21 07:59:55;;;;;;;10.20;2.47;;;15.50;99.90;;;;;;4912809;29;20214;-72
2022/05/21 08:02:41;;;;;;;7.70;2.10;;;15.50;99.90;;;;;;4920964;29;20699;-73
2022/05/21 08:05:25;;;;;;;6.30;2.37;;;15.50;99.90;;;;;;4935466;29;20219;-72
2022/05/21 08:08:10;;;;;;;9.77;2.20;;;15.50;99.90;;;;;;4935012;29;20263;-73
2022/05/21 08:10:54;;;;;;;8.70;2.37;;;15.40;99.90;;;;;;4927700;29;20198;-73
2022/05/21 08:13:39;;;;;;;10.17;2.57;;;15.40;99.90;;;;;;4915396;29;20191;-73
2022/05/21 08:16:24;;;;;;;9.53;2.00;;;15.40;99.90;;;;;;4935137;29;20175;-73
2022/05/21 08:19:08;;;;;;;5.27;1.60;;;15.50;99.90;;;;;;4920460;29;20211;-73
2022/05/21 08:21:52;;;;;;;4.33;1.60;;;15.60;99.90;;;;;;4920914;29;20201;-73
2022/05/21 08:27:39;;;;;;;10.63;1.90;;;15.80;99.90;;;;;;4897806;29;20356;-73
2022/05/21 08:30:24;;;;;;;5.33;1.80;;;15.90;99.90;;;;;;4896260;29;20280;-73
2022/05/21 08:33:09;;;;;;;6.80;1.80;;;16.00;99.90;;;;;;4883368;29;20216;-73
2022/05/21 08:35:53;;;;;;;7.53;1.50;;;16.00;99.90;;;;;;4894395;29;20207;-73
2022/05/21 08:38:37;;;;;;;4.77;1.53;;;16.00;99.90;;;;;;4896777;29;20706;-74
2022/05/21 08:41:26;;;;;;;5.73;1.37;;;16.00;99.90;;;;;;4908985;29;20211;-74
2022/05/21 08:44:16;;;;;;;7.20;1.67;;;16.00;99.90;;;;;;4916161;29;20300;-73
2022/05/21 08:47:27;;;;;;;6.90;1.37;;;16.00;99.90;;;;;;4901230;29;20200;-73
2022/05/21 08:50:17;;;;;;;6.87;1.57;;;16.00;99.90;;;;;;4919592;29;20210;-74
2022/05/21 08:53:15;;;;;;;7.13;1.37;;;16.10;99.90;;;;;;4921135;29;20202;-74
2022/05/21 08:56:02;;;;;;;5.80;1.13;;;16.20;99.90;;;;;;4916214;29;20735;-73
2022/05/21 08:58:50;;;;;;;4.30;1.40;;;16.20;99.90;;;;;;4901688;29;20815;-73
2022/05/21 09:01:37;;;;;;;6.40;1.67;;;16.20;99.90;;;;;;4901645;29;20214;-73
2022/05/21 09:04:23;;;;;;;4.77;1.67;;;16.30;99.90;;;;;;4904946;29;20239;-73
2022/05/21 09:07:52;;;;;;;6.97;1.73;;;16.40;99.90;;;;;;4920205;29;20199;-73
2022/05/21 09:10:51;;;;;;;6.63;1.40;;;16.50;99.90;;;;;;4910777;29;20214;-73
2022/05/21 09:14:01;;;;;;;4.33;1.43;;;16.60;99.90;;;;;;4914887;29;20243;-73
2022/05/21 09:16:54;;;;;;;6.80;1.33;;;16.60;99.90;;;;;;4934931;29;20179;-73
2022/05/21 09:19:47;;;;;;;8.03;1.70;;;16.60;99.90;;;;;;4915751;29;20695;-73
2022/05/21 09:22:31;;;;;;;6.77;1.40;;;16.50;99.90;;;;;;4915625;29;20731;-73
2022/05/21 09:25:19;;;;;;;7.17;2.77;;;16.50;99.90;;;;;;4916078;29;20582;-73
2022/05/21 09:28:10;;;;;;;4.17;1.43;;;16.50;99.90;;;;;;4906662;29;20256;-74
2022/05/21 09:30:57;;;;;;;5.33;1.33;;;16.40;99.90;;;;;;4882069;29;20212;-74
2022/05/21 09:33:45;;;;;;;6.20;1.57;;;16.40;99.90;;;;;;4898445;29;20317;-74
2022/05/21 09:36:34;;;;;;;6.67;1.63;;;16.40;99.90;;;;;;4883147;29;20568;-73
2022/05/21 09:39:48;;;;;;;6.13;1.80;;;16.40;99.90;;;;;;4915451;29;20234;-73
2022/05/21 09:45:41;;;;;;;8.97;1.70;;;16.30;99.90;;;;;;4919029;29;20676;-73
2022/05/21 09:48:26;;;;;;;6.97;1.60;;;16.30;99.90;;;;;;4902802;29;20215;-74
2022/05/21 09:51:40;;;;;;;6.53;1.87;;;16.40;99.90;;;;;;4918803;29;20271;-74
2022/05/21 09:54:28;;;;;;;6.97;1.50;;;16.40;99.90;;;;;;4896861;29;20248;-73
2022/05/21 09:57:34;;;;;;;8.27;1.73;;;16.40;99.90;;;;;;4900324;29;20200;-73
2022/05/21 10:00:30;;;;;;;6.10;1.60;;;16.40;99.90;;;;;;4899925;29;20180;-73
2022/05/21 10:03:14;;;;;;;5.27;1.20;;;16.30;99.90;;;;;;4885627;29;20272;-73
2022/05/21 10:06:00;;;;;;;5.97;1.20;;;16.30;99.90;;;;;;4902321;29;20196;-73
2022/05/21 10:12:04;;;;;;;5.27;1.17;;;16.50;99.90;;;;;;4908043;29;20202;-73
2022/05/21 10:15:06;;;;;;;6.70;1.63;;;16.70;99.90;;;;;;4885411;29;20199;-74
2022/05/21 10:17:59;;;;;;;6.53;1.70;;;16.80;99.90;;;;;;4885379;29;20227;-73
2022/05/21 10:20:46;;;;;;;7.87;1.40;;;16.90;99.90;;;;;;4889679;29;20283;-73
2022/05/21 10:23:40;;;;;;;7.40;1.43;;;16.90;99.90;;;;;;4887056;29;20244;-73
2022/05/21 10:26:33;;;;;;;4.33;1.43;;;16.90;99.90;;;;;;4885402;29;20717;-73
2022/05/21 10:29:40;;;;;;;7.40;1.60;;;17.00;99.90;;;;;;4899529;29;20212;-73
2022/05/21 10:32:31;;;;;;;4.23;1.20;;;17.00;99.90;;;;;;4898504;29;20184;-73
2022/05/21 10:36:01;;;;;;;4.50;1.30;;;17.30;99.90;;;;;;4898576;29;20552;-73
2022/05/21 10:38:58;;;;;;;3.43;1.20;;;17.30;99.90;;;;;;4898982;29;20247;-73
2022/05/21 10:42:25;;;;;;;4.80;1.30;;;17.20;99.90;;;;;;4900084;29;20262;-73
2022/05/21 10:45:29;;;;;;;3.13;1.03;;;17.20;99.90;;;;;;4871989;29;20208;-73
2022/05/21 10:48:30;;;;;;;3.67;0.90;;;17.10;99.90;;;;;;4884707;29;20264;-74
2022/05/21 10:51:36;;;;;;;4.43;1.27;;;17.10;99.90;;;;;;4884895;29;20195;-73
2022/05/21 10:54:37;;;;;;;8.80;2.00;;;17.20;99.90;;;;;;4885096;29;20274;-73
2022/05/21 10:58:11;;;;;;;3.90;1.23;;;17.20;99.90;;;;;;4886555;29;20211;-74
2022/05/21 11:01:12;;;;;;;3.27;1.10;;;17.40;99.90;;;;;;4916771;29;20175;-73
2022/05/21 11:04:15;;;;;;;3.13;1.17;;;17.50;99.90;;;;;;4904023;29;20193;-73
2022/05/21 11:07:24;;;;;;;6.47;1.50;;;17.60;99.90;;;;;;4904564;29;20175;-74
2022/05/21 11:10:30;;;;;;;3.97;1.20;;;17.70;99.90;;;;;;4903223;29;20219;-73
2022/05/21 11:13:45;;;;;;;4.17;1.57;;;17.70;99.90;;;;;;4906044;29;20251;-73
2022/05/21 11:16:54;;;;;;;5.80;1.20;;;17.60;99.90;;;;;;4903334;29;20178;-73
2022/05/21 11:20:12;;;;;;;4.37;1.30;;;17.70;99.90;;;;;;4880812;29;20218;-73
2022/05/21 11:23:07;;;;;;;4.70;1.20;;;17.80;99.90;;;;;;4917535;29;20226;-73
2022/05/21 11:26:01;;;;;;;2.50;1.20;;;17.90;99.90;;;;;;4917151;29;20632;-73
2022/05/21 11:28:52;;;;;;;3.47;1.00;;;17.90;99.90;;;;;;4907346;29;20271;-73
2022/05/21 11:38:33;;;;;;;4.77;1.27;;;17.70;99.90;;;;;;4898387;29;20229;-73
2022/05/21 11:41:25;;;;;;;3.90;1.03;;;17.60;99.90;;;;;;4908878;29;20218;-73
2022/05/21 11:47:21;;;;;;;3.70;0.87;;;17.50;99.90;;;;;;4916913;29;20199;-73
2022/05/21 11:50:17;;;;;;;3.87;0.90;;;17.60;99.90;;;;;;4916734;29;20744;-73
2022/05/21 11:53:34;;;;;;;4.47;0.83;;;17.70;99.90;;;;;;4901989;29;20180;-73
2022/05/21 11:56:18;;;;;;;3.27;0.90;;;17.70;99.90;;;;;;4901034;29;20248;-73
2022/05/21 11:59:12;;;;;;;4.57;1.10;;;17.80;99.90;;;;;;4893523;29;20267;-74
2022/05/21 12:02:17;;;;;;;4.10;1.20;;;17.90;99.90;;;;;;4883435;29;20216;-72
2022/05/21 12:05:08;;;;;;;7.47;1.27;;;18.00;99.90;;;;;;4896891;29;20184;-73
2022/05/21 12:07:55;;;;;;;2.10;0.70;;;18.00;99.90;;;;;;4897159;29;20172;-73
2022/05/21 12:11:06;;;;;;;6.13;1.13;;;17.90;99.90;;;;;;4894979;29;20222;-73
2022/05/21 12:14:15;;;;;;;5.40;1.13;;;18.00;99.90;;;;;;4905718;29;20207;-73
2022/05/21 12:17:01;;;;;;;4.33;0.80;;;18.00;99.90;;;;;;4903184;29;20560;-72
2022/05/21 12:19:52;;;;;;;3.53;1.10;;;18.00;99.90;;;;;;4901958;29;20234;-73
2022/05/21 12:22:46;;;;;;;4.10;1.00;;;18.00;99.90;;;;;;4914662;29;20221;-72
2022/05/21 12:25:57;;;;;;;3.63;1.17;;;18.10;99.90;;;;;;4924547;29;20203;-73
2022/05/21 12:28:47;;;;;;;4.63;1.10;;;18.10;99.90;;;;;;4866430;29;20225;-73
2022/05/21 12:31:53;;;;;;;3.57;0.90;;;18.10;99.90;;;;;;4902138;29;20187;-73
2022/05/21 12:35:11;;;;;;;5.33;1.50;;;18.10;99.90;;;;;;4916472;29;20232;-73
2022/05/21 12:38:08;;;;;;;3.73;1.00;;;18.20;99.90;;;;;;4897459;29;20199;-72
2022/05/21 12:40:58;;;;;;;4.40;1.10;;;18.30;99.90;;;;;;4907695;29;20208;-73
2022/05/21 12:43:49;;;;;;;7.53;1.47;;;18.20;99.90;;;;;;4913683;29;20312;-72
2022/05/21 12:46:35;;;;;;;3.60;0.90;;;18.20;99.90;;;;;;4882727;29;20570;-73
2022/05/21 12:49:20;;;;;;;2.57;1.00;;;18.30;99.90;;;;;;4897335;29;20756;-73
2022/05/21 12:52:05;;;;;;;4.80;1.00;;;18.20;99.90;;;;;;4896222;29;20184;-73
2022/05/21 12:54:49;;;;;;;4.60;1.20;;;18.20;99.90;;;;;;4906231;29;20215;-72
2022/05/21 12:57:33;;;;;;;5.40;1.20;;;18.20;99.90;;;;;;4901565;29;20175;-73
2022/05/21 13:00:20;;;;;;;3.43;0.93;;;18.20;99.90;;;;;;4914903;29;20259;-72
2022/05/21 13:03:07;;;;;;;3.10;1.03;;;18.30;99.90;;;;;;4901490;29;20263;-73
2022/05/21 13:06:00;;;;;;;6.13;1.20;;;18.30;99.90;;;;;;4901389;29;20199;-73
2022/05/21 13:08:44;;;;;;;3.57;1.00;;;18.40;99.90;;;;;;4900734;29;20218;-72
2022/05/21 13:11:40;;;;;;;3.60;0.87;;;18.40;99.90;;;;;;4908991;29;20244;-72
2022/05/21 13:14:33;;;;;;;4.37;1.10;;;18.30;99.90;;;;;;4909833;29;20203;-73
2022/05/21 13:17:45;;;;;;;4.10;1.03;;;18.30;99.90;;;;;;4896900;29;20721;-73
2022/05/21 13:20:49;;;;;;;3.37;1.13;;;18.30;99.90;;;;;;4896277;29;20200;-73
2022/05/21 13:23:45;;;;;;;4.67;0.93;;;18.30;99.90;;;;;;4883956;29;20709;-73
2022/05/21 13:26:33;;;;;;;4.17;1.13;;;18.20;99.90;;;;;;4885706;29;20191;-73
2022/05/21 13:29:37;;;;;;;5.38;1.10;;;18.20;99.90;;;;;;4886469;29;20224;-73
2022/05/21 13:32:25;;;;;;;4.97;1.10;;;18.20;99.90;;;;;;4903534;29;20199;-73
2022/05/21 13:35:26;;;;;;;3.60;1.05;;;18.30;99.90;;;;;;4918952;29;20231;-74
2022/05/21 13:38:13;;;;;;;4.13;0.93;;;18.30;99.90;;;;;;4904526;29;20176;-73
2022/05/21 13:40:58;;;;;;;4.47;1.40;;;18.20;99.90;;;;;;4904064;29;20232;-73
2022/05/21 13:43:48;;;;;;;7.57;0.90;;;18.20;99.90;;;;;;4885928;29;20249;-72
2022/05/21 13:46:34;;;;;;;6.27;1.10;;;18.20;99.90;;;;;;4930880;29;20605;-73
2022/05/21 13:49:28;;;;;;;3.47;0.83;;;18.20;99.90;;;;;;4923440;29;20210;-73
2022/05/21 13:52:12;;;;;;;2.77;1.10;;;18.20;99.90;;;;;;4923507;29;20611;-72
2022/05/21 13:54:57;;;;;;;2.13;0.53;;;18.20;99.90;;;;;;4923399;29;20227;-73
2022/05/21 13:57:41;;;;;;;2.87;1.13;;;18.20;99.90;;;;;;4937831;29;20187;-73
2022/05/21 14:00:31;;;;;;;7.07;1.00;;;18.20;99.90;;;;;;4922316;29;20198;-73
2022/05/21 14:03:26;;;;;;;4.43;0.90;;;18.20;99.90;;;;;;4930407;29;20215;-73
2022/05/21 14:06:21;;;;;;;3.63;0.90;;;18.30;99.90;;;;;;4904450;29;20176;-73
2022/05/21 14:09:05;;;;;;;4.40;0.90;;;18.30;99.90;;;;;;4918369;29;20211;-72
2022/05/21 14:11:56;;;;;;;4.47;1.00;;;18.40;99.90;;;;;;4904089;29;20187;-73
2022/05/21 14:14:42;;;;;;;3.97;1.07;;;18.50;99.90;;;;;;4896395;29;20212;-73
2022/05/21 14:17:35;;;;;;;5.17;1.30;;;18.50;99.90;;;;;;4885036;29;20176;-73
2022/05/21 14:20:29;;;;;;;2.03;0.90;;;18.60;99.90;;;;;;4885212;29;20188;-73
2022/05/21 14:23:35;;;;;;;7.97;1.03;;;18.60;99.90;;;;;;4899516;29;20205;-73
2022/05/21 14:26:22;;;;;;;2.47;1.00;;;18.50;99.90;;;;;;4891230;29;20227;-73
2022/05/21 14:29:31;;;;;;;6.53;1.40;;;18.50;99.90;;;;;;4922853;29;20214;-74
2022/05/21 14:32:15;;;;;;;2.72;1.15;;;18.40;99.90;;;;;;4898925;29;20204;-73
2022/05/21 14:35:32;;;;;;;2.23;1.07;;;18.30;99.90;;;;;;4898987;29;20192;-73
2022/05/21 14:38:19;;;;;;;2.70;1.00;;;18.30;99.90;;;;;;4848320;29;20231;-72
2022/05/21 14:41:04;;;;;;;4.20;1.07;;;18.20;99.90;;;;;;4911261;29;20266;-73
2022/05/21 14:43:48;;;;;;;2.90;1.00;;;18.20;99.90;;;;;;4888925;29;20260;-73
2022/05/21 14:49:48;;;;;;;4.57;1.07;;;18.20;99.90;;;;;;4892803;29;20219;-73
2022/05/21 14:52:53;;;;;;;4.23;1.10;;;18.20;99.90;;;;;;4891233;29;20292;-73
2022/05/21 14:55:38;;;;;;;3.23;0.60;;;18.30;99.90;;;;;;4923671;29;20198;-72
2022/05/21 14:58:26;;;;;;;4.00;1.00;;;18.20;99.90;;;;;;4922320;29;20210;-73
2022/05/21 15:01:10;;;;;;;3.33;0.85;;;18.20;99.90;;;;;;4908537;29;20285;-73
2022/05/21 15:03:56;;;;;;;3.97;1.00;;;18.20;99.90;;;;;;4903524;29;20227;-73
2022/05/21 15:06:41;;;;;;;1.97;0.70;;;18.10;99.90;;;;;;4903535;29;20174;-73
2022/05/21 15:09:25;;;;;;;5.77;1.23;;;18.10;99.90;;;;;;4917530;29;20295;-73